sensor_id;sensor_type;location;lat;lon;timestamp;P1;durP1;ratioP1;P2;durP2;ratioP2
56181;SDS011;51963;46.052;14.544;2023-07-30T00:01:24;11.45;;;7.60;;
56181;SDS011;51963;46.052;14.544;2023-07-30T00:03:50;14.30;;;7.30;;
56181;SDS011;51963;46.052;14.544;2023-07-30T00:06:15;11.90;;;7.68;;
56181;SDS011;51963;46.052;14.544;2023-07-30T00:08:41;11.30;;;7.40;;
56181;SDS011;51963;46.052;14.544;2023-07-30T00:11:09;10.32;;;7.00;;
56181;SDS011;51963;46.052;14.544;2023-07-30T00:13:35;11.38;;;7.68;;
56181;SDS011;51963;46.052;14.544;2023-07-30T00:16:03;11.02;;;7.63;;
56181;SDS011;51963;46.052;14.544;2023-07-30T00:18:29;10.57;;;6.95;;
56181;SDS011;51963;46.052;14.544;2023-07-30T00:20:55;11.55;;;7.28;;
56181;SDS011;51963;46.052;14.544;2023-07-30T00:23:20;10.75;;;7.57;;
56181;SDS011;51963;46.052;14.544;2023-07-30T00:25:46;11.23;;;7.70;;
56181;SDS011;51963;46.052;14.544;2023-07-30T00:28:16;11.98;;;7.40;;
56181;SDS011;51963;46.052;14.544;2023-07-30T00:30:42;10.20;;;7.40;;
56181;SDS011;51963;46.052;14.544;2023-07-30T00:35:35;13.57;;;7.30;;
56181;SDS011;51963;46.052;14.544;2023-07-30T00:38:01;11.18;;;7.35;;
56181;SDS011;51963;46.052;14.544;2023-07-30T00:40:27;13.50;;;6.70;;
56181;SDS011;51963;46.052;14.544;2023-07-30T00:42:52;9.77;;;7.57;;
56181;SDS011;51963;46.052;14.544;2023-07-30T00:45:18;9.45;;;7.10;;
56181;SDS011;51963;46.052;14.544;2023-07-30T00:47:46;12.93;;;7.30;;
56181;SDS011;51963;46.052;14.544;2023-07-30T00:50:13;9.68;;;7.13;;
56181;SDS011;51963;46.052;14.544;2023-07-30T00:52:40;12.95;;;7.65;;
56181;SDS011;51963;46.052;14.544;2023-07-30T00:55:06;7.00;;;6.30;;
56181;SDS011;51963;46.052;14.544;2023-07-30T00:57:32;10.52;;;7.18;;
56181;SDS011;51963;46.052;14.544;2023-07-30T01:00:01;7.82;;;6.78;;
56181;SDS011;51963;46.052;14.544;2023-07-30T01:02:30;8.52;;;7.28;;
56181;SDS011;51963;46.052;14.544;2023-07-30T01:04:57;12.40;;;7.50;;
56181;SDS011;51963;46.052;14.544;2023-07-30T01:07:25;10.38;;;7.88;;
56181;SDS011;51963;46.052;14.544;2023-07-30T01:09:51;7.97;;;7.10;;
56181;SDS011;51963;46.052;14.544;2023-07-30T01:12:18;13.35;;;7.30;;
56181;SDS011;51963;46.052;14.544;2023-07-30T01:14:45;11.77;;;7.93;;
56181;SDS011;51963;46.052;14.544;2023-07-30T01:17:13;10.43;;;8.40;;
56181;SDS011;51963;46.052;14.544;2023-07-30T01:19:39;12.02;;;8.40;;
56181;SDS011;51963;46.052;14.544;2023-07-30T01:22:04;10.82;;;7.75;;
56181;SDS011;51963;46.052;14.544;2023-07-30T01:24:30;10.18;;;7.82;;
56181;SDS011;51963;46.052;14.544;2023-07-30T01:26:57;10.13;;;8.38;;
56181;SDS011;51963;46.052;14.544;2023-07-30T01:32:11;10.77;;;7.45;;
56181;SDS011;51963;46.052;14.544;2023-07-30T01:37:05;13.25;;;7.95;;
56181;SDS011;51963;46.052;14.544;2023-07-30T01:39:35;9.45;;;7.88;;
56181;SDS011;51963;46.052;14.544;2023-07-30T01:42:03;10.88;;;8.15;;
56181;SDS011;51963;46.052;14.544;2023-07-30T01:44:29;10.25;;;8.30;;
56181;SDS011;51963;46.052;14.544;2023-07-30T01:46:55;10.68;;;8.95;;
56181;SDS011;51963;46.052;14.544;2023-07-30T01:49:21;12.77;;;8.75;;
56181;SDS011;51963;46.052;14.544;2023-07-30T01:51:47;12.07;;;9.85;;
56181;SDS011;51963;46.052;14.544;2023-07-30T01:54:13;14.15;;;9.45;;
56181;SDS011;51963;46.052;14.544;2023-07-30T01:56:39;13.63;;;9.60;;
56181;SDS011;51963;46.052;14.544;2023-07-30T01:59:05;11.07;;;8.25;;
56181;SDS011;51963;46.052;14.544;2023-07-30T02:01:31;14.85;;;9.75;;
56181;SDS011;51963;46.052;14.544;2023-07-30T02:03:59;14.18;;;8.35;;
56181;SDS011;51963;46.052;14.544;2023-07-30T02:06:24;15.95;;;9.93;;
56181;SDS011;51963;46.052;14.544;2023-07-30T02:08:50;16.42;;;9.70;;
56181;SDS011;51963;46.052;14.544;2023-07-30T02:11:16;16.30;;;10.55;;
56181;SDS011;51963;46.052;14.544;2023-07-30T02:13:42;14.80;;;10.38;;
56181;SDS011;51963;46.052;14.544;2023-07-30T02:16:07;16.38;;;10.50;;
56181;SDS011;51963;46.052;14.544;2023-07-30T02:18:33;15.05;;;9.75;;
56181;SDS011;51963;46.052;14.544;2023-07-30T02:20:59;15.77;;;11.65;;
56181;SDS011;51963;46.052;14.544;2023-07-30T02:23:25;17.67;;;12.73;;
56181;SDS011;51963;46.052;14.544;2023-07-30T02:25:50;27.83;;;14.90;;
56181;SDS011;51963;46.052;14.544;2023-07-30T02:28:16;24.35;;;15.63;;
56181;SDS011;51963;46.052;14.544;2023-07-30T02:30:42;17.70;;;13.07;;
56181;SDS011;51963;46.052;14.544;2023-07-30T02:33:07;14.20;;;11.73;;
56181;SDS011;51963;46.052;14.544;2023-07-30T02:35:33;14.57;;;12.20;;
56181;SDS011;51963;46.052;14.544;2023-07-30T02:37:59;18.17;;;13.20;;
56181;SDS011;51963;46.052;14.544;2023-07-30T02:40:25;12.43;;;10.90;;
56181;SDS011;51963;46.052;14.544;2023-07-30T02:42:51;10.10;;;8.73;;
56181;SDS011;51963;46.052;14.544;2023-07-30T02:45:17;10.82;;;9.20;;
56181;SDS011;51963;46.052;14.544;2023-07-30T02:47:43;10.07;;;8.30;;
56181;SDS011;51963;46.052;14.544;2023-07-30T02:50:09;9.02;;;7.80;;
56181;SDS011;51963;46.052;14.544;2023-07-30T02:52:34;10.75;;;8.55;;
56181;SDS011;51963;46.052;14.544;2023-07-30T02:55:00;11.20;;;8.70;;
56181;SDS011;51963;46.052;14.544;2023-07-30T02:57:28;11.05;;;8.98;;
56181;SDS011;51963;46.052;14.544;2023-07-30T02:59:54;13.85;;;10.88;;
56181;SDS011;51963;46.052;14.544;2023-07-30T03:02:22;14.90;;;11.60;;
56181;SDS011;51963;46.052;14.544;2023-07-30T03:04:48;19.83;;;14.63;;
56181;SDS011;51963;46.052;14.544;2023-07-30T03:07:16;16.52;;;13.02;;
56181;SDS011;51963;46.052;14.544;2023-07-30T03:09:43;14.23;;;11.57;;
56181;SDS011;51963;46.052;14.544;2023-07-30T03:12:09;17.08;;;12.88;;
56181;SDS011;51963;46.052;14.544;2023-07-30T03:14:35;20.25;;;15.27;;
56181;SDS011;51963;46.052;14.544;2023-07-30T03:17:02;24.05;;;16.15;;
56181;SDS011;51963;46.052;14.544;2023-07-30T03:19:27;20.65;;;16.25;;
56181;SDS011;51963;46.052;14.544;2023-07-30T03:21:53;24.35;;;16.63;;
56181;SDS011;51963;46.052;14.544;2023-07-30T03:24:19;18.30;;;14.40;;
56181;SDS011;51963;46.052;14.544;2023-07-30T03:26:45;16.70;;;13.40;;
56181;SDS011;51963;46.052;14.544;2023-07-30T03:29:15;16.75;;;12.50;;
56181;SDS011;51963;46.052;14.544;2023-07-30T03:31:41;17.50;;;12.43;;
56181;SDS011;51963;46.052;14.544;2023-07-30T03:34:07;15.38;;;12.60;;
56181;SDS011;51963;46.052;14.544;2023-07-30T03:36:33;13.98;;;10.52;;
56181;SDS011;51963;46.052;14.544;2023-07-30T03:38:58;13.27;;;11.38;;
56181;SDS011;51963;46.052;14.544;2023-07-30T03:41:24;12.50;;;9.57;;
56181;SDS011;51963;46.052;14.544;2023-07-30T03:46:17;9.38;;;6.68;;
56181;SDS011;51963;46.052;14.544;2023-07-30T03:48:48;9.15;;;7.32;;
56181;SDS011;51963;46.052;14.544;2023-07-30T03:51:13;6.70;;;5.90;;
56181;SDS011;51963;46.052;14.544;2023-07-30T03:53:39;5.72;;;5.18;;
56181;SDS011;51963;46.052;14.544;2023-07-30T03:56:05;6.15;;;4.95;;
56181;SDS011;51963;46.052;14.544;2023-07-30T03:58:31;6.45;;;4.82;;
56181;SDS011;51963;46.052;14.544;2023-07-30T04:00:56;7.22;;;5.45;;
56181;SDS011;51963;46.052;14.544;2023-07-30T04:05:50;6.60;;;5.07;;
56181;SDS011;51963;46.052;14.544;2023-07-30T04:08:16;6.20;;;5.50;;
56181;SDS011;51963;46.052;14.544;2023-07-30T04:10:42;5.85;;;4.57;;
56181;SDS011;51963;46.052;14.544;2023-07-30T04:13:08;6.10;;;4.80;;
56181;SDS011;51963;46.052;14.544;2023-07-30T04:15:33;5.10;;;4.60;;
56181;SDS011;51963;46.052;14.544;2023-07-30T04:17:59;4.90;;;4.40;;
56181;SDS011;51963;46.052;14.544;2023-07-30T04:20:25;7.18;;;5.63;;
56181;SDS011;51963;46.052;14.544;2023-07-30T04:22:51;8.82;;;6.75;;
56181;SDS011;51963;46.052;14.544;2023-07-30T04:25:17;8.43;;;6.22;;
56181;SDS011;51963;46.052;14.544;2023-07-30T04:27:44;6.82;;;5.93;;
56181;SDS011;51963;46.052;14.544;2023-07-30T04:30:09;6.47;;;5.82;;
56181;SDS011;51963;46.052;14.544;2023-07-30T04:32:36;6.45;;;5.63;;
56181;SDS011;51963;46.052;14.544;2023-07-30T04:35:01;8.57;;;5.57;;
56181;SDS011;51963;46.052;14.544;2023-07-30T04:37:28;7.03;;;5.05;;
56181;SDS011;51963;46.052;14.544;2023-07-30T04:39:54;6.55;;;5.75;;
56181;SDS011;51963;46.052;14.544;2023-07-30T04:42:20;7.25;;;5.53;;
56181;SDS011;51963;46.052;14.544;2023-07-30T04:44:46;9.38;;;6.90;;
56181;SDS011;51963;46.052;14.544;2023-07-30T04:47:15;7.93;;;6.60;;
56181;SDS011;51963;46.052;14.544;2023-07-30T04:49:40;8.27;;;6.60;;
56181;SDS011;51963;46.052;14.544;2023-07-30T04:52:10;11.13;;;6.75;;
56181;SDS011;51963;46.052;14.544;2023-07-30T04:54:36;13.15;;;8.32;;
56181;SDS011;51963;46.052;14.544;2023-07-30T04:57:02;10.65;;;7.93;;
56181;SDS011;51963;46.052;14.544;2023-07-30T04:59:28;11.45;;;8.45;;
56181;SDS011;51963;46.052;14.544;2023-07-30T05:01:54;13.07;;;9.73;;
56181;SDS011;51963;46.052;14.544;2023-07-30T05:04:19;15.05;;;9.90;;
56181;SDS011;51963;46.052;14.544;2023-07-30T05:06:45;15.52;;;9.73;;
56181;SDS011;51963;46.052;14.544;2023-07-30T05:09:11;17.73;;;10.10;;
56181;SDS011;51963;46.052;14.544;2023-07-30T05:11:38;12.88;;;9.05;;
56181;SDS011;51963;46.052;14.544;2023-07-30T05:14:04;16.88;;;10.82;;
56181;SDS011;51963;46.052;14.544;2023-07-30T05:16:30;15.75;;;10.82;;
56181;SDS011;51963;46.052;14.544;2023-07-30T05:18:55;16.15;;;11.07;;
56181;SDS011;51963;46.052;14.544;2023-07-30T05:21:21;19.13;;;12.23;;
56181;SDS011;51963;46.052;14.544;2023-07-30T05:23:47;17.17;;;11.95;;
56181;SDS011;51963;46.052;14.544;2023-07-30T05:26:13;17.58;;;11.48;;
56181;SDS011;51963;46.052;14.544;2023-07-30T05:28:41;16.30;;;11.00;;
56181;SDS011;51963;46.052;14.544;2023-07-30T05:31:06;13.88;;;10.25;;
56181;SDS011;51963;46.052;14.544;2023-07-30T05:33:32;16.73;;;10.30;;
56181;SDS011;51963;46.052;14.544;2023-07-30T05:35:58;15.55;;;10.43;;
56181;SDS011;51963;46.052;14.544;2023-07-30T05:38:23;14.15;;;9.88;;
56181;SDS011;51963;46.052;14.544;2023-07-30T05:40:49;13.10;;;9.40;;
56181;SDS011;51963;46.052;14.544;2023-07-30T05:43:15;16.55;;;10.80;;
56181;SDS011;51963;46.052;14.544;2023-07-30T05:45:43;18.80;;;11.20;;
56181;SDS011;51963;46.052;14.544;2023-07-30T05:48:09;19.17;;;11.73;;
56181;SDS011;51963;46.052;14.544;2023-07-30T05:50:35;14.55;;;10.57;;
56181;SDS011;51963;46.052;14.544;2023-07-30T05:53:01;13.77;;;9.98;;
56181;SDS011;51963;46.052;14.544;2023-07-30T05:55:27;15.63;;;10.30;;
56181;SDS011;51963;46.052;14.544;2023-07-30T05:57:52;12.75;;;10.00;;
56181;SDS011;51963;46.052;14.544;2023-07-30T06:00:19;13.48;;;9.07;;
56181;SDS011;51963;46.052;14.544;2023-07-30T06:02:45;15.35;;;10.32;;
56181;SDS011;51963;46.052;14.544;2023-07-30T06:05:13;19.38;;;11.50;;
56181;SDS011;51963;46.052;14.544;2023-07-30T06:07:39;19.00;;;12.52;;
56181;SDS011;51963;46.052;14.544;2023-07-30T06:10:07;17.08;;;12.70;;
56181;SDS011;51963;46.052;14.544;2023-07-30T06:12:33;11.77;;;8.57;;
56181;SDS011;51963;46.052;14.544;2023-07-30T06:14:58;10.73;;;7.28;;
56181;SDS011;51963;46.052;14.544;2023-07-30T06:17:24;9.35;;;7.53;;
56181;SDS011;51963;46.052;14.544;2023-07-30T06:19:50;8.40;;;7.50;;
56181;SDS011;51963;46.052;14.544;2023-07-30T06:22:16;10.05;;;6.75;;
56181;SDS011;51963;46.052;14.544;2023-07-30T06:24:41;6.78;;;5.72;;
56181;SDS011;51963;46.052;14.544;2023-07-30T06:27:07;6.35;;;5.50;;
56181;SDS011;51963;46.052;14.544;2023-07-30T06:29:35;7.28;;;6.05;;
56181;SDS011;51963;46.052;14.544;2023-07-30T06:32:01;6.82;;;5.95;;
56181;SDS011;51963;46.052;14.544;2023-07-30T06:34:27;8.13;;;5.40;;
56181;SDS011;51963;46.052;14.544;2023-07-30T06:36:54;4.93;;;4.18;;
56181;SDS011;51963;46.052;14.544;2023-07-30T06:39:20;5.65;;;4.75;;
56181;SDS011;51963;46.052;14.544;2023-07-30T06:41:46;4.65;;;4.15;;
56181;SDS011;51963;46.052;14.544;2023-07-30T06:44:13;6.60;;;4.05;;
56181;SDS011;51963;46.052;14.544;2023-07-30T06:46:41;3.95;;;3.58;;
56181;SDS011;51963;46.052;14.544;2023-07-30T06:49:06;5.28;;;4.20;;
56181;SDS011;51963;46.052;14.544;2023-07-30T06:51:32;4.10;;;3.50;;
56181;SDS011;51963;46.052;14.544;2023-07-30T06:53:58;4.40;;;4.00;;
56181;SDS011;51963;46.052;14.544;2023-07-30T06:56:24;13.10;;;8.45;;
56181;SDS011;51963;46.052;14.544;2023-07-30T06:58:49;8.07;;;5.85;;
56181;SDS011;51963;46.052;14.544;2023-07-30T07:01:15;4.80;;;3.88;;
56181;SDS011;51963;46.052;14.544;2023-07-30T07:03:41;4.47;;;3.33;;
56181;SDS011;51963;46.052;14.544;2023-07-30T07:06:06;4.20;;;3.08;;
56181;SDS011;51963;46.052;14.544;2023-07-30T07:08:32;3.17;;;2.95;;
56181;SDS011;51963;46.052;14.544;2023-07-30T07:10:58;4.32;;;2.80;;
56181;SDS011;51963;46.052;14.544;2023-07-30T07:13:23;3.72;;;3.15;;
56181;SDS011;51963;46.052;14.544;2023-07-30T07:15:49;3.58;;;3.10;;
56181;SDS011;51963;46.052;14.544;2023-07-30T07:18:17;3.50;;;2.92;;
56181;SDS011;51963;46.052;14.544;2023-07-30T07:20:43;3.38;;;3.05;;
56181;SDS011;51963;46.052;14.544;2023-07-30T07:23:09;2.92;;;2.65;;
56181;SDS011;51963;46.052;14.544;2023-07-30T07:25:34;2.20;;;2.00;;
56181;SDS011;51963;46.052;14.544;2023-07-30T07:28:02;3.38;;;1.83;;
56181;SDS011;51963;46.052;14.544;2023-07-30T07:30:28;3.05;;;1.95;;
56181;SDS011;51963;46.052;14.544;2023-07-30T07:32:54;5.18;;;3.90;;
56181;SDS011;51963;46.052;14.544;2023-07-30T07:35:22;4.90;;;3.72;;
56181;SDS011;51963;46.052;14.544;2023-07-30T07:37:50;4.75;;;3.40;;
56181;SDS011;51963;46.052;14.544;2023-07-30T07:40:16;2.72;;;2.53;;
56181;SDS011;51963;46.052;14.544;2023-07-30T07:42:42;2.05;;;1.95;;
56181;SDS011;51963;46.052;14.544;2023-07-30T07:45:08;2.30;;;2.05;;
56181;SDS011;51963;46.052;14.544;2023-07-30T07:47:34;3.15;;;1.98;;
56181;SDS011;51963;46.052;14.544;2023-07-30T07:49:59;2.30;;;2.10;;
56181;SDS011;51963;46.052;14.544;2023-07-30T07:52:25;2.22;;;1.80;;
56181;SDS011;51963;46.052;14.544;2023-07-30T07:54:51;1.67;;;1.58;;
56181;SDS011;51963;46.052;14.544;2023-07-30T07:57:17;1.85;;;1.58;;
56181;SDS011;51963;46.052;14.544;2023-07-30T07:59:42;1.80;;;1.70;;
56181;SDS011;51963;46.052;14.544;2023-07-30T08:02:12;2.17;;;1.98;;
56181;SDS011;51963;46.052;14.544;2023-07-30T08:04:39;2.15;;;1.95;;
56181;SDS011;51963;46.052;14.544;2023-07-30T08:07:08;4.05;;;2.10;;
56181;SDS011;51963;46.052;14.544;2023-07-30T08:09:36;3.13;;;2.10;;
56181;SDS011;51963;46.052;14.544;2023-07-30T08:12:02;3.10;;;1.70;;
56181;SDS011;51963;46.052;14.544;2023-07-30T08:14:28;2.30;;;1.75;;
56181;SDS011;51963;46.052;14.544;2023-07-30T08:16:55;1.85;;;1.63;;
56181;SDS011;51963;46.052;14.544;2023-07-30T08:19:21;2.10;;;1.38;;
56181;SDS011;51963;46.052;14.544;2023-07-30T08:21:49;1.75;;;1.45;;
56181;SDS011;51963;46.052;14.544;2023-07-30T08:24:15;1.50;;;1.40;;
56181;SDS011;51963;46.052;14.544;2023-07-30T08:26:41;1.60;;;1.40;;
56181;SDS011;51963;46.052;14.544;2023-07-30T08:29:06;1.92;;;1.40;;
56181;SDS011;51963;46.052;14.544;2023-07-30T08:31:35;1.80;;;1.65;;
56181;SDS011;51963;46.052;14.544;2023-07-30T08:34:01;1.70;;;1.45;;
56181;SDS011;51963;46.052;14.544;2023-07-30T08:36:27;1.40;;;1.30;;
56181;SDS011;51963;46.052;14.544;2023-07-30T08:38:55;1.50;;;1.40;;
56181;SDS011;51963;46.052;14.544;2023-07-30T08:41:21;2.70;;;1.30;;
56181;SDS011;51963;46.052;14.544;2023-07-30T08:43:47;1.50;;;1.40;;
56181;SDS011;51963;46.052;14.544;2023-07-30T08:46:17;2.50;;;1.38;;
56181;SDS011;51963;46.052;14.544;2023-07-30T08:48:44;2.20;;;1.50;;
56181;SDS011;51963;46.052;14.544;2023-07-30T08:51:10;1.08;;;1.00;;
56181;SDS011;51963;46.052;14.544;2023-07-30T08:53:37;1.58;;;1.10;;
56181;SDS011;51963;46.052;14.544;2023-07-30T08:56:05;0.80;;;0.80;;
56181;SDS011;51963;46.052;14.544;2023-07-30T08:58:31;1.90;;;0.98;;
56181;SDS011;51963;46.052;14.544;2023-07-30T09:00:58;1.20;;;0.95;;
56181;SDS011;51963;46.052;14.544;2023-07-30T09:03:26;1.33;;;1.00;;
56181;SDS011;51963;46.052;14.544;2023-07-30T09:05:54;0.88;;;0.80;;
56181;SDS011;51963;46.052;14.544;2023-07-30T09:08:21;2.50;;;0.98;;
56181;SDS011;51963;46.052;14.544;2023-07-30T09:10:48;1.77;;;0.90;;
56181;SDS011;51963;46.052;14.544;2023-07-30T09:13:22;1.27;;;0.70;;
56181;SDS011;51963;46.052;14.544;2023-07-30T09:15:49;0.70;;;0.70;;
56181;SDS011;51963;46.052;14.544;2023-07-30T09:18:17;1.60;;;0.80;;
56181;SDS011;51963;46.052;14.544;2023-07-30T09:20:46;1.70;;;0.80;;
56181;SDS011;51963;46.052;14.544;2023-07-30T09:23:12;0.77;;;0.77;;
56181;SDS011;51963;46.052;14.544;2023-07-30T09:25:38;1.00;;;0.88;;
56181;SDS011;51963;46.052;14.544;2023-07-30T09:28:05;2.67;;;1.10;;
56181;SDS011;51963;46.052;14.544;2023-07-30T09:30:36;0.85;;;0.85;;
56181;SDS011;51963;46.052;14.544;2023-07-30T09:33:01;1.02;;;0.77;;
56181;SDS011;51963;46.052;14.544;2023-07-30T09:35:27;1.08;;;0.80;;
56181;SDS011;51963;46.052;14.544;2023-07-30T09:37:59;0.98;;;0.98;;
56181;SDS011;51963;46.052;14.544;2023-07-30T09:40:35;1.02;;;0.88;;
56181;SDS011;51963;46.052;14.544;2023-07-30T09:43:06;1.40;;;1.15;;
56181;SDS011;51963;46.052;14.544;2023-07-30T09:45:33;1.23;;;1.13;;
56181;SDS011;51963;46.052;14.544;2023-07-30T09:48:02;2.67;;;1.20;;
56181;SDS011;51963;46.052;14.544;2023-07-30T09:50:38;1.00;;;1.00;;
56181;SDS011;51963;46.052;14.544;2023-07-30T09:53:05;1.85;;;1.05;;
56181;SDS011;51963;46.052;14.544;2023-07-30T09:55:31;1.15;;;0.93;;
56181;SDS011;51963;46.052;14.544;2023-07-30T09:57:57;1.63;;;0.90;;
56181;SDS011;51963;46.052;14.544;2023-07-30T10:00:23;1.20;;;1.10;;
56181;SDS011;51963;46.052;14.544;2023-07-30T10:02:49;2.15;;;1.10;;
56181;SDS011;51963;46.052;14.544;2023-07-30T10:05:18;1.00;;;0.82;;
56181;SDS011;51963;46.052;14.544;2023-07-30T10:07:49;1.65;;;1.30;;
56181;SDS011;51963;46.052;14.544;2023-07-30T10:10:19;2.22;;;1.02;;
56181;SDS011;51963;46.052;14.544;2023-07-30T10:12:48;0.85;;;0.85;;
56181;SDS011;51963;46.052;14.544;2023-07-30T10:15:18;4.22;;;1.15;;
56181;SDS011;51963;46.052;14.544;2023-07-30T10:17:46;2.72;;;0.93;;
56181;SDS011;51963;46.052;14.544;2023-07-30T10:20:22;1.27;;;0.90;;
56181;SDS011;51963;46.052;14.544;2023-07-30T10:22:54;0.70;;;0.70;;
56181;SDS011;51963;46.052;14.544;2023-07-30T10:25:22;1.10;;;1.00;;
56181;SDS011;51963;46.052;14.544;2023-07-30T10:28:09;1.90;;;0.95;;
56181;SDS011;51963;46.052;14.544;2023-07-30T10:30:57;1.30;;;1.20;;
56181;SDS011;51963;46.052;14.544;2023-07-30T10:33:46;0.82;;;0.80;;
56181;SDS011;51963;46.052;14.544;2023-07-30T10:36:31;0.60;;;0.60;;
56181;SDS011;51963;46.052;14.544;2023-07-30T10:41:56;0.80;;;0.80;;
56181;SDS011;51963;46.052;14.544;2023-07-30T10:44:33;0.82;;;0.82;;
56181;SDS011;51963;46.052;14.544;2023-07-30T10:47:02;2.13;;;0.90;;
56181;SDS011;51963;46.052;14.544;2023-07-30T10:49:38;0.93;;;0.82;;
56181;SDS011;51963;46.052;14.544;2023-07-30T10:52:09;0.93;;;0.75;;
56181;SDS011;51963;46.052;14.544;2023-07-30T10:54:35;0.85;;;0.70;;
56181;SDS011;51963;46.052;14.544;2023-07-30T10:57:02;0.95;;;0.80;;
56181;SDS011;51963;46.052;14.544;2023-07-30T10:59:35;1.17;;;0.80;;
56181;SDS011;51963;46.052;14.544;2023-07-30T11:02:06;0.80;;;0.65;;
56181;SDS011;51963;46.052;14.544;2023-07-30T11:07:00;0.80;;;0.63;;
56181;SDS011;51963;46.052;14.544;2023-07-30T11:09:26;0.55;;;0.55;;
56181;SDS011;51963;46.052;14.544;2023-07-30T11:11:54;1.45;;;0.73;;
56181;SDS011;51963;46.052;14.544;2023-07-30T11:14:21;1.05;;;0.70;;
56181;SDS011;51963;46.052;14.544;2023-07-30T11:16:54;1.65;;;0.60;;
56181;SDS011;51963;46.052;14.544;2023-07-30T11:19:27;0.70;;;0.68;;
56181;SDS011;51963;46.052;14.544;2023-07-30T11:21:54;1.50;;;0.70;;
56181;SDS011;51963;46.052;14.544;2023-07-30T11:24:34;0.95;;;0.80;;
56181;SDS011;51963;46.052;14.544;2023-07-30T11:27:02;1.13;;;0.80;;
56181;SDS011;51963;46.052;14.544;2023-07-30T11:29:31;0.80;;;0.80;;
56181;SDS011;51963;46.052;14.544;2023-07-30T11:31:57;0.70;;;0.70;;
56181;SDS011;51963;46.052;14.544;2023-07-30T11:34:24;1.60;;;0.80;;
56181;SDS011;51963;46.052;14.544;2023-07-30T11:36:51;0.75;;;0.75;;
56181;SDS011;51963;46.052;14.544;2023-07-30T11:39:18;0.60;;;0.60;;
56181;SDS011;51963;46.052;14.544;2023-07-30T11:41:45;2.00;;;0.63;;
56181;SDS011;51963;46.052;14.544;2023-07-30T11:47:00;0.60;;;0.60;;
56181;SDS011;51963;46.052;14.544;2023-07-30T11:49:26;1.25;;;0.70;;
56181;SDS011;51963;46.052;14.544;2023-07-30T11:52:03;1.20;;;0.70;;
56181;SDS011;51963;46.052;14.544;2023-07-30T11:54:35;0.60;;;0.60;;
56181;SDS011;51963;46.052;14.544;2023-07-30T11:57:01;0.75;;;0.70;;
56181;SDS011;51963;46.052;14.544;2023-07-30T11:59:27;0.63;;;0.60;;
56181;SDS011;51963;46.052;14.544;2023-07-30T12:01:53;1.95;;;0.60;;
56181;SDS011;51963;46.052;14.544;2023-07-30T12:04:19;0.70;;;0.70;;
56181;SDS011;51963;46.052;14.544;2023-07-30T12:14:10;0.60;;;0.60;;
56181;SDS011;51963;46.052;14.544;2023-07-30T12:16:36;0.50;;;0.50;;
56181;SDS011;51963;46.052;14.544;2023-07-30T12:19:04;0.50;;;0.50;;
56181;SDS011;51963;46.052;14.544;2023-07-30T12:21:29;1.58;;;0.52;;
56181;SDS011;51963;46.052;14.544;2023-07-30T12:23:55;0.50;;;0.50;;
56181;SDS011;51963;46.052;14.544;2023-07-30T12:26:21;0.67;;;0.67;;
56181;SDS011;51963;46.052;14.544;2023-07-30T12:28:47;0.82;;;0.60;;
56181;SDS011;51963;46.052;14.544;2023-07-30T12:31:14;0.70;;;0.68;;
56181;SDS011;51963;46.052;14.544;2023-07-30T12:33:40;0.50;;;0.50;;
56181;SDS011;51963;46.052;14.544;2023-07-30T12:36:06;1.07;;;0.50;;
56181;SDS011;51963;46.052;14.544;2023-07-30T12:38:31;0.70;;;0.50;;
56181;SDS011;51963;46.052;14.544;2023-07-30T12:40:57;2.95;;;1.92;;
56181;SDS011;51963;46.052;14.544;2023-07-30T12:43:22;1.50;;;0.68;;
56181;SDS011;51963;46.052;14.544;2023-07-30T12:45:51;1.55;;;0.70;;
56181;SDS011;51963;46.052;14.544;2023-07-30T12:48:16;0.70;;;0.67;;
56181;SDS011;51963;46.052;14.544;2023-07-30T12:50:42;0.77;;;0.70;;
56181;SDS011;51963;46.052;14.544;2023-07-30T12:53:08;1.87;;;0.60;;
56181;SDS011;51963;46.052;14.544;2023-07-30T12:55:33;1.03;;;0.60;;
56181;SDS011;51963;46.052;14.544;2023-07-30T12:57:59;0.97;;;0.53;;
56181;SDS011;51963;46.052;14.544;2023-07-30T13:00:30;0.50;;;0.50;;
56181;SDS011;51963;46.052;14.544;2023-07-30T13:02:55;0.60;;;0.60;;
56181;SDS011;51963;46.052;14.544;2023-07-30T13:05:22;1.48;;;0.60;;
56181;SDS011;51963;46.052;14.544;2023-07-30T13:07:48;0.60;;;0.50;;
56181;SDS011;51963;46.052;14.544;2023-07-30T13:10:21;0.80;;;0.57;;
56181;SDS011;51963;46.052;14.544;2023-07-30T13:12:50;0.85;;;0.80;;
56181;SDS011;51963;46.052;14.544;2023-07-30T13:15:15;1.23;;;0.60;;
56181;SDS011;51963;46.052;14.544;2023-07-30T13:17:41;0.97;;;0.70;;
56181;SDS011;51963;46.052;14.544;2023-07-30T13:20:07;0.90;;;0.50;;
56181;SDS011;51963;46.052;14.544;2023-07-30T13:22:33;0.60;;;0.52;;
56181;SDS011;51963;46.052;14.544;2023-07-30T13:24:58;0.50;;;0.50;;
56181;SDS011;51963;46.052;14.544;2023-07-30T13:27:24;0.67;;;0.60;;
56181;SDS011;51963;46.052;14.544;2023-07-30T13:29:50;1.00;;;0.70;;
56181;SDS011;51963;46.052;14.544;2023-07-30T13:32:15;0.60;;;0.60;;
56181;SDS011;51963;46.052;14.544;2023-07-30T13:34:41;1.10;;;0.77;;
56181;SDS011;51963;46.052;14.544;2023-07-30T13:37:07;0.70;;;0.70;;
56181;SDS011;51963;46.052;14.544;2023-07-30T13:39:43;0.63;;;0.60;;
56181;SDS011;51963;46.052;14.544;2023-07-30T13:42:18;0.60;;;0.50;;
56181;SDS011;51963;46.052;14.544;2023-07-30T13:44:50;0.75;;;0.70;;
56181;SDS011;51963;46.052;14.544;2023-07-30T13:47:20;0.50;;;0.50;;
56181;SDS011;51963;46.052;14.544;2023-07-30T13:49:47;0.82;;;0.70;;
56181;SDS011;51963;46.052;14.544;2023-07-30T13:52:17;0.60;;;0.60;;
56181;SDS011;51963;46.052;14.544;2023-07-30T13:54:42;0.60;;;0.50;;
56181;SDS011;51963;46.052;14.544;2023-07-30T13:57:23;0.50;;;0.50;;
56181;SDS011;51963;46.052;14.544;2023-07-30T13:59:51;1.25;;;0.60;;
56181;SDS011;51963;46.052;14.544;2023-07-30T14:02:18;2.22;;;0.70;;
56181;SDS011;51963;46.052;14.544;2023-07-30T14:04:46;0.73;;;0.60;;
56181;SDS011;51963;46.052;14.544;2023-07-30T14:07:11;1.17;;;0.70;;
56181;SDS011;51963;46.052;14.544;2023-07-30T14:09:37;2.23;;;0.70;;
56181;SDS011;51963;46.052;14.544;2023-07-30T14:12:06;1.17;;;0.70;;
56181;SDS011;51963;46.052;14.544;2023-07-30T14:14:35;0.50;;;0.45;;
56181;SDS011;51963;46.052;14.544;2023-07-30T14:17:03;0.80;;;0.50;;
56181;SDS011;51963;46.052;14.544;2023-07-30T14:19:32;0.40;;;0.40;;
56181;SDS011;51963;46.052;14.544;2023-07-30T14:22:05;0.57;;;0.50;;
56181;SDS011;51963;46.052;14.544;2023-07-30T14:24:31;0.77;;;0.70;;
56181;SDS011;51963;46.052;14.544;2023-07-30T14:26:57;0.73;;;0.50;;
56181;SDS011;51963;46.052;14.544;2023-07-30T14:29:22;1.52;;;0.47;;
56181;SDS011;51963;46.052;14.544;2023-07-30T14:31:49;0.52;;;0.52;;
56181;SDS011;51963;46.052;14.544;2023-07-30T14:34:15;0.90;;;0.55;;
56181;SDS011;51963;46.052;14.544;2023-07-30T14:36:40;0.40;;;0.40;;
56181;SDS011;51963;46.052;14.544;2023-07-30T14:39:06;0.43;;;0.40;;
56181;SDS011;51963;46.052;14.544;2023-07-30T14:41:32;0.68;;;0.52;;
56181;SDS011;51963;46.052;14.544;2023-07-30T14:43:58;0.93;;;0.50;;
56181;SDS011;51963;46.052;14.544;2023-07-30T14:46:24;0.80;;;0.50;;
56181;SDS011;51963;46.052;14.544;2023-07-30T14:48:49;1.02;;;0.70;;
56181;SDS011;51963;46.052;14.544;2023-07-30T14:51:15;0.68;;;0.55;;
56181;SDS011;51963;46.052;14.544;2023-07-30T14:53:41;2.03;;;1.02;;
56181;SDS011;51963;46.052;14.544;2023-07-30T14:56:07;0.70;;;0.68;;